Time;durP1;ratioP1;P1;durP2;ratioP2;P2;SDS_P1;SDS_P2;PMS_P1;PMS_P2;Temp;Humidity;BMP_temperature;BMP_pressure;BME280_temperature;BME280_humidity;BME280_pressure;Samples;Min_cycle;Max_cycle;Signal;HPM_P1;HPM_P2
2022/10/10 00:01:16;;;;;;;;;20.25;16.50;;;;;16.29;43.90;100904.50;4974158;28;45497;-54
2022/10/10 00:03:43;;;;;;;;;18.25;15.75;;;;;16.27;43.80;100907.22;4977099;28;47752;-55
2022/10/10 00:06:09;;;;;;;;;17.25;14.00;;;;;16.25;43.50;100912.56;4960559;28;45391;-55
2022/10/10 00:08:35;;;;;;;;;16.50;15.25;;;;;16.24;43.71;100910.84;4962335;28;45325;-55
2022/10/10 00:11:00;;;;;;;;;19.00;16.25;;;;;16.21;43.87;100908.31;4960765;28;45492;-55
2022/10/10 00:13:25;;;;;;;;;18.25;13.50;;;;;16.20;44.05;100909.22;4961917;28;46315;-56
2022/10/10 00:15:51;;;;;;;;;19.50;17.50;;;;;16.20;44.04;100911.00;4960316;28;45260;-55
2022/10/10 00:18:16;;;;;;;;;20.25;17.25;;;;;16.18;44.00;100905.75;4960963;28;45446;-55
2022/10/10 00:20:41;;;;;;;;;18.00;18.00;;;;;16.17;44.06;100901.34;4961770;28;45240;-57
2022/10/10 00:23:07;;;;;;;;;19.00;16.75;;;;;16.16;44.32;100904.94;4962002;28;46218;-56
2022/10/10 00:25:32;;;;;;;;;19.75;18.50;;;;;16.13;43.94;100898.88;4961856;28;45282;-56
2022/10/10 00:28:01;;;;;;;;;18.25;16.75;;;;;16.14;43.91;100900.59;4961986;28;45215;-55
2022/10/10 00:30:27;;;;;;;;;18.25;15.25;;;;;16.11;44.00;100896.25;4961572;28;45323;-56
2022/10/10 00:32:52;;;;;;;;;15.75;14.50;;;;;16.06;44.08;100891.16;4961797;28;45586;-56
2022/10/10 00:35:17;;;;;;;;;16.25;16.25;;;;;16.07;44.30;100897.31;4961556;28;45394;-56
2022/10/10 00:37:43;;;;;;;;;15.75;15.00;;;;;16.06;44.09;100896.44;4961839;28;45341;-56
2022/10/10 00:40:10;;;;;;;;;16.50;14.25;;;;;16.05;44.33;100899.13;4961810;28;45319;-56
2022/10/10 00:42:36;;;;;;;;;19.25;16.00;;;;;16.02;44.41;100897.44;4960680;28;45254;-55
2022/10/10 00:45:35;;;;;;;;;19.75;16.25;;;;;16.00;44.22;100888.72;4959864;28;45255;-56
2022/10/10 00:48:08;;;;;;;;;16.00;14.50;;;;;15.98;44.21;100894.97;4961784;28;45484;-56
2022/10/10 00:50:39;;;;;;;;;18.50;15.75;;;;;15.96;44.38;100896.81;4961428;28;45231;-56
2022/10/10 00:53:07;;;;;;;;;13.75;13.00;;;;;15.93;44.67;100888.03;4961409;28;46212;-55
2022/10/10 00:55:33;;;;;;;;;13.50;13.50;;;;;15.91;44.55;100895.19;4961303;28;45168;-56
2022/10/10 00:57:59;;;;;;;;;19.75;15.50;;;;;15.91;44.69;100894.31;4961501;28;45215;-56
2022/10/10 01:00:24;;;;;;;;;18.25;16.00;;;;;15.88;44.56;100889.97;4961786;28;45579;-57
2022/10/10 01:02:49;;;;;;;;;15.25;13.75;;;;;15.84;44.39;100888.34;4959959;28;47082;-56
2022/10/10 01:05:15;;;;;;;;;14.50;14.00;;;;;15.86;44.29;100883.00;4960937;28;45317;-55
2022/10/10 01:07:43;;;;;;;;;15.50;15.50;;;;;15.81;44.63;100883.16;4961473;28;45322;-56
2022/10/10 01:10:13;;;;;;;;;16.75;15.75;;;;;15.78;44.92;100872.63;4976294;28;45755;-55
2022/10/10 01:12:56;;;;;;;;;14.25;13.75;;;;;15.81;44.41;100884.91;4960944;28;45294;-55
2022/10/10 01:15:40;;;;;;;;;4.75;4.75;;;;;15.80;44.62;100884.06;4961014;28;45312;-55
2022/10/10 01:18:32;;;;;;;;;14.00;13.50;;;;;15.76;44.86;100891.22;4961184;28;45247;-55
2022/10/10 01:21:13;;;;;;;;;19.25;18.00;;;;;15.74;44.52;100886.91;4960918;28;45329;-55
2022/10/10 01:23:53;;;;;;;;;16.00;14.75;;;;;15.73;44.97;100887.81;4960853;28;46223;-56
2022/10/10 01:26:47;;;;;;;;;20.50;17.00;;;;;15.69;44.89;100889.69;4960872;28;45477;-56
2022/10/10 01:29:25;;;;;;;;;15.00;15.00;;;;;15.69;44.90;100888.84;4942626;28;45361;-56
2022/10/10 01:31:54;;;;;;;;;14.50;12.25;;;;;15.64;44.98;100881.03;4960870;28;45285;-56
2022/10/10 01:34:34;;;;;;;;;15.00;13.75;;;;;15.63;44.79;100876.66;4960759;28;46204;-56
2022/10/10 01:37:12;;;;;;;;;16.25;15.75;;;;;15.62;44.76;100882.00;4959263;28;45918;-55
2022/10/10 01:40:01;;;;;;;;;17.25;16.50;;;;;15.59;45.02;100883.84;4961086;28;45325;-55
2022/10/10 01:42:26;;;;;;;;;15.50;11.50;;;;;15.56;44.86;100883.09;4960459;28;45406;-56
2022/10/10 01:44:52;;;;;;;;;17.25;15.00;;;;;15.54;45.11;100876.97;4960681;28;45326;-55
2022/10/10 01:47:20;;;;;;;;;14.25;14.25;;;;;15.52;45.09;100874.38;4960548;28;45349;-56
2022/10/10 01:49:50;;;;;;;;;16.75;15.75;;;;;15.50;44.90;100878.84;4960765;28;45268;-56
2022/10/10 01:52:28;;;;;;;;;15.00;14.50;;;;;15.48;45.46;100872.72;4960577;28;45370;-55
2022/10/10 01:55:37;;;;;;;;;16.00;15.50;;;;;15.45;45.38;100878.13;4962648;28;46511;-56
2022/10/10 01:58:27;;;;;;;;;15.25;13.75;;;;;15.41;45.00;100873.88;4962460;28;45299;-56
2022/10/10 02:00:58;;;;;;;;;16.75;15.25;;;;;15.40;45.43;100874.78;4962910;28;45355;-56
2022/10/10 02:03:30;;;;;;;;;14.75;14.00;;;;;15.38;45.44;100876.59;4963937;28;46000;-55
2022/10/10 02:06:06;;;;;;;;;16.25;14.25;;;;;15.35;45.21;100869.63;4963671;28;46269;-56
2022/10/10 02:08:39;;;;;;;;;17.50;13.00;;;;;15.34;45.31;100873.16;4963863;28;45276;-54
2022/10/10 02:11:08;;;;;;;;;14.75;14.25;;;;;15.32;44.92;100874.13;4964003;28;45273;-55
2022/10/10 02:13:45;;;;;;;;;14.75;13.50;;;;;15.32;45.27;100871.50;4963848;28;45494;-56
2022/10/10 02:16:23;;;;;;;;;19.00;17.25;;;;;15.28;45.47;100866.31;4963439;28;45343;-56
2022/10/10 02:18:50;;;;;;;;;13.00;11.75;;;;;15.28;45.38;100876.00;4963857;28;45369;-56
2022/10/10 02:21:17;;;;;;;;;15.25;14.25;;;;;15.27;45.52;100871.66;4963761;28;45323;-56
2022/10/10 02:23:46;;;;;;;;;11.00;11.00;;;;;15.25;45.75;100876.13;4963630;28;45458;-56
2022/10/10 02:26:14;;;;;;;;;17.00;15.00;;;;;15.21;45.37;100872.69;4963547;28;46228;-55
2022/10/10 02:28:47;;;;;;;;;12.25;11.75;;;;;15.22;45.42;100874.44;4962364;28;45323;-56
2022/10/10 02:31:18;;;;;;;;;15.75;15.75;;;;;15.20;45.58;100864.81;4963475;28;45326;-54
2022/10/10 02:33:52;;;;;;;;;10.25;9.25;;;;;15.21;45.65;100871.84;4963462;28;45440;-57
2022/10/10 02:36:20;;;;;;;;;17.00;13.75;;;;;15.19;45.83;100868.38;4963243;28;46402;-55
2022/10/10 02:38:47;;;;;;;;;10.50;10.50;;;;;15.19;45.37;100873.66;4962115;28;46023;-55
2022/10/10 02:41:16;;;;;;;;;15.50;14.25;;;;;15.17;45.49;100873.72;4963615;28;45268;-55
2022/10/10 02:43:42;;;;;;;;;13.75;13.75;;;;;15.17;45.46;100875.47;4963191;28;45496;-56
2022/10/10 02:46:11;;;;;;;;;11.75;10.75;;;;;15.18;45.47;100874.56;4961684;28;47082;-54
2022/10/10 02:48:37;;;;;;;;;13.25;11.00;;;;;15.17;45.61;100878.13;4963436;28;45351;-54
2022/10/10 02:51:02;;;;;;;;;13.50;11.50;;;;;15.16;45.99;100871.13;4963480;28;45310;-54
2022/10/10 02:53:28;;;;;;;;;15.00;13.00;;;;;15.12;46.00;100865.06;4963235;28;45409;-53
2022/10/10 02:55:53;;;;;;;;;12.75;10.25;;;;;15.14;45.67;100865.84;4963290;28;45404;-53
2022/10/10 02:58:18;;;;;;;;;16.50;13.00;;;;;15.14;45.83;100873.81;4963162;28;45473;-54
2022/10/10 03:00:44;;;;;;;;;17.50;14.00;;;;;15.11;46.19;100864.19;4963678;28;45450;-53
2022/10/10 03:03:09;;;;;;;;;11.25;10.50;;;;;15.11;46.32;100869.47;4963074;28;45319;-55
2022/10/10 03:05:34;;;;;;;;;15.75;14.00;;;;;15.12;45.86;100878.28;4962380;28;45945;-54
2022/10/10 03:08:00;;;;;;;;;10.50;10.00;;;;;15.10;46.16;100867.72;4963024;28;45420;-53
2022/10/10 03:10:25;;;;;;;;;11.00;10.25;;;;;15.09;46.09;100866.03;4963587;28;45278;-55
2022/10/10 03:12:50;;;;;;;;;9.50;9.25;;;;;15.09;46.15;100873.09;4961590;28;45530;-53
2022/10/10 03:15:16;;;;;;;;;9.50;9.25;;;;;15.06;45.86;100871.41;4962693;28;46419;-54
2022/10/10 03:17:41;;;;;;;;;6.75;4.75;;;;;15.07;46.14;100874.94;4962904;28;45211;-54
2022/10/10 03:20:07;;;;;;;;;11.00;9.75;;;;;15.06;46.64;100873.19;4963188;28;45385;-55
2022/10/10 03:22:33;;;;;;;;;9.50;9.50;;;;;15.03;46.46;100868.84;4962833;28;45393;-55
2022/10/10 03:24:58;;;;;;;;;12.75;11.50;;;;;15.04;46.50;100856.47;4962684;28;45311;-54
2022/10/10 03:27:24;;;;;;;;;10.50;10.50;;;;;15.01;46.19;100862.75;4962767;28;45221;-53
2022/10/10 03:29:49;;;;;;;;;10.00;10.00;;;;;14.99;46.28;100861.91;4962849;28;45298;-52
2022/10/10 03:32:14;;;;;;;;;10.75;10.75;;;;;15.00;46.20;100865.44;4961487;28;45988;-54
2022/10/10 03:34:40;;;;;;;;;13.00;10.50;;;;;15.00;46.31;100870.72;4962806;28;45379;-53
2022/10/10 03:37:05;;;;;;;;;12.75;12.75;;;;;14.98;46.24;100864.59;4957087;28;45326;-55
2022/10/10 03:39:30;;;;;;;;;10.75;10.75;;;;;14.96;46.53;100867.31;4962951;28;45709;-55
2022/10/10 03:41:56;;;;;;;;;11.75;9.75;;;;;14.97;46.56;100869.03;4962576;28;45481;-53
2022/10/10 03:44:21;;;;;;;;;11.25;9.50;;;;;14.96;46.75;100864.66;4961030;28;47189;-54
2022/10/10 03:46:46;;;;;;;;;8.25;8.25;;;;;14.95;46.21;100870.84;4962082;28;45260;-53
2022/10/10 03:49:12;;;;;;;;;10.25;9.75;;;;;14.93;46.47;100868.28;4962740;28;45267;-53
2022/10/10 03:51:37;;;;;;;;;11.00;9.75;;;;;14.89;46.74;100866.63;4977258;28;45386;-50
2022/10/10 03:54:03;;;;;;;;;12.25;9.00;;;;;14.91;46.62;100872.72;4962676;28;45239;-53
2022/10/10 03:56:28;;;;;;;;;10.25;10.25;;;;;14.86;46.88;100858.78;4962267;28;45433;-53
2022/10/10 03:58:54;;;;;;;;;13.50;13.00;;;;;14.90;46.48;100871.00;4962564;28;45362;-53
2022/10/10 04:01:19;;;;;;;;;11.25;10.50;;;;;14.88;46.75;100872.84;4962518;28;45381;-53
2022/10/10 04:03:44;;;;;;;;;12.50;10.00;;;;;14.89;47.00;100873.69;4962396;28;45306;-53
2022/10/10 04:06:10;;;;;;;;;11.75;10.25;;;;;14.88;47.02;100870.19;4962068;28;45163;-51
2022/10/10 04:08:35;;;;;;;;;10.50;8.00;;;;;14.89;47.11;100871.03;4962367;28;45317;-52
2022/10/10 04:11:00;;;;;;;;;11.25;11.00;;;;;14.87;46.99;100863.16;4962326;28;45227;-53
2022/10/10 04:13:26;;;;;;;;;11.50;10.00;;;;;14.86;46.91;100864.06;4976964;28;47288;-53
2022/10/10 04:15:53;;;;;;;;;10.50;9.50;;;;;14.88;47.18;100864.91;4961727;28;45276;-51
2022/10/10 04:18:19;;;;;;;;;12.50;12.00;;;;;14.85;47.05;100857.03;4961009;28;45239;-52
2022/10/10 04:20:45;;;;;;;;;11.00;10.00;;;;;14.89;47.03;100864.00;4962008;28;45308;-53
2022/10/10 04:23:10;;;;;;;;;11.75;9.75;;;;;14.82;46.79;100849.22;4961683;28;45342;-51
2022/10/10 04:25:35;;;;;;;;;11.00;9.25;;;;;14.90;46.79;100865.69;4962009;28;45286;-52
2022/10/10 04:28:01;;;;;;;;;8.00;8.00;;;;;14.90;47.59;100864.84;4976756;28;45467;-51
2022/10/10 04:30:32;;;;;;;;;13.75;10.00;;;;;14.91;46.83;100858.66;4961775;28;45489;-53
2022/10/10 04:32:57;;;;;;;;;10.50;9.75;;;;;14.92;47.32;100858.59;4961611;28;47160;-53
2022/10/10 04:35:22;;;;;;;;;12.75;11.75;;;;;14.92;47.00;100858.59;4961537;28;45272;-54
2022/10/10 04:37:47;;;;;;;;;10.75;9.75;;;;;14.93;47.07;100867.38;4960584;28;45250;-54
2022/10/10 04:40:13;;;;;;;;;12.00;11.50;;;;;14.93;47.48;100864.75;4961941;28;45264;-55
2022/10/10 04:42:38;;;;;;;;;11.75;9.25;;;;;14.93;47.36;100855.03;4944054;28;46349;-50
2022/10/10 04:45:05;;;;;;;;;10.50;10.00;;;;;14.94;47.22;100864.72;4961415;28;45232;-51
2022/10/10 04:47:31;;;;;;;;;10.25;10.25;;;;;14.94;47.66;100862.06;4961884;28;45435;-54
2022/10/10 04:49:56;;;;;;;;;11.00;9.00;;;;;14.94;47.67;100856.78;4961394;28;45415;-54
2022/10/10 04:52:21;;;;;;;;;11.25;9.25;;;;;14.94;47.51;100870.00;4961617;28;45331;-55
2022/10/10 04:54:47;;;;;;;;;13.00;12.00;;;;;14.96;47.58;100859.38;4961556;28;45300;-55
2022/10/10 04:57:12;;;;;;;;;11.00;11.00;;;;;14.97;47.62;100862.88;4961559;28;45323;-54
2022/10/10 04:59:37;;;;;;;;;11.75;10.50;;;;;14.97;47.71;100850.53;4961414;28;45338;-52
2022/10/10 05:02:03;;;;;;;;;10.50;9.75;;;;;14.95;47.50;100845.28;4961023;28;45338;-53
2022/10/10 05:04:28;;;;;;;;;17.00;10.25;;;;;14.95;48.04;100863.81;4961139;28;45283;-54
2022/10/10 05:06:53;;;;;;;;;11.25;10.25;;;;;14.99;48.14;100839.88;4961199;28;45507;-53
2022/10/10 05:09:18;;;;;;;;;13.75;12.25;;;;;14.98;47.62;100836.38;4961298;28;45348;-51
2022/10/10 05:11:44;;;;;;;;;13.50;10.75;;;;;14.99;47.63;100847.81;4961149;28;47406;-51
2022/10/10 05:14:09;;;;;;;;;13.50;11.25;;;;;14.99;48.03;100851.31;4961229;28;45442;-54
2022/10/10 05:16:34;;;;;;;;;12.50;10.75;;;;;14.98;47.52;100843.44;4961215;28;45314;-52
2022/10/10 05:19:00;;;;;;;;;10.50;7.75;;;;;14.98;48.20;100843.44;4961384;28;45375;-51
2022/10/10 05:21:26;;;;;;;;;7.75;6.25;;;;;14.92;48.03;100842.72;4960920;28;46139;-52
2022/10/10 05:23:52;;;;;;;;;9.50;9.50;;;;;14.97;47.94;100853.16;4960701;28;45401;-53
2022/10/10 05:26:18;;;;;;;;;12.25;9.50;;;;;14.95;48.38;100853.22;4959193;28;45237;-53
2022/10/10 05:28:44;;;;;;;;;4.75;4.25;;;;;14.94;48.24;100848.84;4960441;28;45241;-53
2022/10/10 05:31:09;;;;;;;;;11.25;9.00;;;;;14.94;47.98;100848.84;4960454;28;45404;-55
2022/10/10 05:33:35;;;;;;;;;11.50;10.00;;;;;14.94;47.77;100847.94;4961000;28;45460;-53
2022/10/10 05:36:12;;;;;;;;;11.25;9.75;;;;;14.95;47.96;100861.16;4960748;28;45291;-53
2022/10/10 05:38:39;;;;;;;;;11.25;9.25;;;;;14.95;47.86;100855.88;4960828;28;45369;-54
2022/10/10 05:41:06;;;;;;;;;13.00;11.25;;;;;14.94;48.40;100855.88;4960782;28;46173;-50
2022/10/10 05:43:31;;;;;;;;;12.75;9.75;;;;;14.93;48.00;100855.03;4960540;28;45298;-55
2022/10/10 05:45:57;;;;;;;;;13.00;12.00;;;;;14.93;48.27;100862.09;4960719;28;45238;-54
2022/10/10 05:48:22;;;;;;;;;13.50;13.25;;;;;14.93;48.69;100857.69;4960695;28;45346;-51
2022/10/10 05:50:50;;;;;;;;;14.00;10.25;;;;;14.94;48.44;100859.41;4960850;28;45231;-53
2022/10/10 05:53:17;;;;;;;;;10.25;9.25;;;;;14.93;48.00;100857.69;4960631;28;45357;-51
2022/10/10 05:55:46;;;;;;;;;10.50;10.50;;;;;14.93;48.48;100855.03;4960867;28;45343;-52
2022/10/10 05:58:14;;;;;;;;;10.25;9.50;;;;;14.92;48.18;100850.66;4959308;28;45224;-54
2022/10/10 06:00:41;;;;;;;;;13.75;12.50;;;;;14.92;48.11;100848.00;4968467;28;45330;-52
2022/10/10 06:03:07;;;;;;;;;15.75;13.00;;;;;14.93;48.08;100848.84;4964252;28;45257;-54
2022/10/10 06:05:33;;;;;;;;;12.50;10.50;;;;;14.90;48.20;100852.47;4960482;28;45280;-53
2022/10/10 06:07:58;;;;;;;;;12.50;11.75;;;;;14.93;48.23;100848.84;4960241;28;45328;-55
2022/10/10 06:10:24;;;;;;;;;15.00;12.25;;;;;14.91;48.44;100851.56;4960545;28;45932;-52
2022/10/10 06:12:49;;;;;;;;;13.25;12.25;;;;;14.92;48.26;100849.81;4960280;28;45401;-54
2022/10/10 06:15:14;;;;;;;;;15.00;12.75;;;;;14.91;48.77;100854.22;4960654;28;45299;-54
2022/10/10 06:17:40;;;;;;;;;12.25;10.75;;;;;14.90;48.86;100849.81;4960277;28;45226;-53
2022/10/10 06:20:06;;;;;;;;;11.25;11.25;;;;;14.92;48.65;100855.09;4958975;28;48018;-53
2022/10/10 06:22:31;;;;;;;;;14.50;12.00;;;;;14.92;48.77;100860.38;4960220;28;45697;-53
2022/10/10 06:24:56;;;;;;;;;9.25;8.50;;;;;14.90;48.58;100854.25;4960754;28;45250;-53
2022/10/10 06:27:22;;;;;;;;;10.50;9.50;;;;;14.92;48.34;100861.25;4960177;28;45183;-54
2022/10/10 06:29:47;;;;;;;;;17.50;14.50;;;;;14.92;49.05;100865.69;4960187;28;46031;-54
2022/10/10 06:32:12;;;;;;;;;12.50;10.25;;;;;14.89;48.83;100858.69;4958863;28;45284;-55
2022/10/10 06:34:38;;;;;;;;;15.00;13.75;;;;;14.92;48.59;100863.03;4975369;28;45258;-53
2022/10/10 06:37:03;;;;;;;;;13.25;11.00;;;;;14.92;49.15;100865.69;4959827;28;45509;-54
2022/10/10 06:39:28;;;;;;;;;15.00;14.25;;;;;14.94;48.72;100875.31;4960296;28;45317;-54
2022/10/10 06:41:53;;;;;;;;;14.00;12.75;;;;;14.95;49.00;100871.75;4962054;28;45277;-52
2022/10/10 06:44:19;;;;;;;;;14.75;13.00;;;;;14.97;48.56;100884.03;4963713;28;45236;-53
2022/10/10 06:46:44;;;;;;;;;12.25;11.25;;;;;14.98;48.99;100883.13;4963079;28;45402;-53
2022/10/10 06:49:10;;;;;;;;;11.75;11.25;;;;;14.97;49.34;100886.69;4963690;28;46375;-53
2022/10/10 06:51:37;;;;;;;;;9.25;9.25;;;;;14.99;49.21;100882.22;4963370;28;45729;-52
2022/10/10 06:54:03;;;;;;;;;14.50;12.00;;;;;15.03;49.28;100890.03;4963473;28;45487;-54
2022/10/10 06:56:28;;;;;;;;;11.25;11.00;;;;;15.04;49.31;100885.59;4963168;28;45415;-54
2022/10/10 06:58:54;;;;;;;;;13.25;11.50;;;;;15.04;48.91;100897.06;4963115;28;45379;-55
2022/10/10 07:01:21;;;;;;;;;15.00;15.00;;;;;15.08;49.25;100897.81;4962734;28;45452;-54
2022/10/10 07:03:46;;;;;;;;;13.75;11.75;;;;;15.10;48.96;100906.56;4962046;28;45306;-56
2022/10/10 07:06:13;;;;;;;;;13.25;12.00;;;;;15.13;49.08;100908.25;4962807;28;45346;-54
2022/10/10 07:08:39;;;;;;;;;10.75;10.75;;;;;15.13;49.19;100909.13;4963262;28;45239;-53
2022/10/10 07:11:06;;;;;;;;;11.50;10.50;;;;;15.17;49.42;100915.19;4962878;28;45247;-54
2022/10/10 07:13:32;;;;;;;;;15.00;12.25;;;;;15.20;49.51;100909.81;4961815;28;45357;-54
2022/10/10 07:15:58;;;;;;;;;12.75;11.00;;;;;15.24;49.28;100911.44;4961314;28;45493;-54
2022/10/10 07:18:23;;;;;;;;;14.50;12.75;;;;;15.28;49.66;100915.72;4962775;28;45374;-54
2022/10/10 07:20:48;;;;;;;;;12.00;11.00;;;;;15.29;49.41;100917.47;4962734;28;45360;-51
2022/10/10 07:23:15;;;;;;;;;13.50;11.50;;;;;15.31;49.35;100915.66;4963080;28;45291;-54
2022/10/10 07:25:41;;;;;;;;;12.50;10.00;;;;;15.33;49.79;100920.88;4962750;28;45200;-53
2022/10/10 07:28:07;;;;;;;;;12.00;11.75;;;;;15.35;49.51;100917.28;4962513;28;47054;-54
2022/10/10 07:30:38;;;;;;;;;11.00;10.25;;;;;15.43;49.96;100927.63;4961079;28;45249;-55
2022/10/10 07:33:03;;;;;;;;;11.25;10.25;;;;;15.43;49.96;100922.31;4962931;28;45338;-54
2022/10/10 07:35:29;;;;;;;;;13.25;11.75;;;;;15.49;50.11;100924.78;4961093;28;45619;-54
2022/10/10 07:37:57;;;;;;;;;15.25;13.75;;;;;15.53;49.82;100931.69;4962694;28;46047;-55
2022/10/10 07:40:23;;;;;;;;;11.00;10.25;;;;;15.55;50.04;100926.38;4962630;28;45417;-53
2022/10/10 07:42:49;;;;;;;;;13.25;12.00;;;;;15.58;50.38;100924.50;4962511;28;45174;-54
2022/10/10 07:45:14;;;;;;;;;20.00;18.25;;;;;15.64;50.10;100922.56;4962235;28;45233;-53
2022/10/10 07:47:40;;;;;;;;;20.25;19.00;;;;;15.65;49.87;100927.81;4962459;28;45989;-55
2022/10/10 07:50:06;;;;;;;;;18.25;16.50;;;;;15.73;50.39;100944.31;4962429;28;45466;-52
2022/10/10 07:52:34;;;;;;;;;15.00;13.75;;;;;15.76;49.97;100949.53;4962649;28;45295;-55
2022/10/10 07:55:00;;;;;;;;;16.75;12.50;;;;;15.79;50.20;100948.56;4962206;28;45322;-55
2022/10/10 07:57:25;;;;;;;;;15.00;14.00;;;;;15.85;50.07;100945.75;4962130;28;45292;-55
2022/10/10 07:59:50;;;;;;;;;13.75;12.25;;;;;15.90;49.96;100949.09;4962041;28;45917;-55
2022/10/10 08:02:16;;;;;;;;;16.50;14.50;;;;;15.94;50.49;100944.56;4962467;28;45259;-55
2022/10/10 08:04:41;;;;;;;;;19.50;15.75;;;;;15.98;50.06;100942.69;4962257;28;45285;-55
2022/10/10 08:07:07;;;;;;;;;17.25;14.00;;;;;16.00;50.42;100938.19;4961876;28;46136;-54
2022/10/10 08:09:33;;;;;;;;;14.50;13.00;;;;;16.06;50.22;100937.97;4962162;28;45232;-55
2022/10/10 08:11:58;;;;;;;;;11.50;11.25;;;;;16.08;50.27;100946.75;4962383;28;45650;-55
2022/10/10 08:14:23;;;;;;;;;16.25;13.00;;;;;16.08;50.62;100946.75;4962026;28;45319;-55
2022/10/10 08:16:48;;;;;;;;;20.75;17.50;;;;;16.13;50.35;100938.66;4961846;28;46012;-54
2022/10/10 08:19:14;;;;;;;;;12.50;11.75;;;;;16.16;50.44;100941.19;4961962;28;45232;-57
2022/10/10 08:21:39;;;;;;;;;12.75;11.50;;;;;16.22;50.36;100944.47;4962315;28;45267;-55
2022/10/10 08:24:05;;;;;;;;;19.00;16.00;;;;;16.23;50.41;100938.25;4961918;28;45167;-55
2022/10/10 08:26:30;;;;;;;;;14.75;14.75;;;;;16.28;50.25;100946.06;4961822;28;46184;-53
2022/10/10 08:28:56;;;;;;;;;13.00;11.00;;;;;16.36;50.84;100956.41;4961666;28;45334;-55
2022/10/10 08:31:21;;;;;;;;;13.75;12.00;;;;;16.40;50.91;100960.66;4961777;28;45331;-56
2022/10/10 08:33:49;;;;;;;;;14.00;13.25;;;;;16.44;50.80;100972.03;4961785;28;45392;-56
2022/10/10 08:36:20;;;;;;;;;14.25;14.25;;;;;16.44;50.79;100964.97;4961714;28;46297;-56
2022/10/10 08:38:46;;;;;;;;;13.00;11.25;;;;;16.51;50.69;100957.66;4961704;28;45562;-56
2022/10/10 08:41:43;;;;;;;;;17.00;13.50;;;;;16.58;50.72;100969.78;4961720;28;45413;-56
2022/10/10 08:44:21;;;;;;;;;12.75;10.50;;;;;16.65;50.97;100978.38;4961441;28;45336;-56
2022/10/10 08:47:03;;;;;;;;;14.75;11.75;;;;;16.71;50.90;100978.16;4961170;28;45286;-56
2022/10/10 08:49:33;;;;;;;;;15.75;13.00;;;;;16.78;50.59;100987.66;4960281;28;45351;-56
2022/10/10 08:52:44;;;;;;;;;12.75;11.50;;;;;16.82;51.20;100991.91;4960203;28;45358;-57
2022/10/10 08:55:32;;;;;;;;;19.75;14.25;;;;;16.90;50.88;100997.81;4960057;28;45579;-56
2022/10/10 08:58:05;;;;;;;;;14.25;13.25;;;;;16.98;51.09;100999.34;4961125;28;46172;-56
2022/10/10 09:00:37;;;;;;;;;14.75;11.75;;;;;17.02;51.03;100990.34;4961518;28;45316;-56
2022/10/10 09:03:11;;;;;;;;;14.00;14.00;;;;;17.09;51.37;101005.09;4961109;28;45314;-57
2022/10/10 09:05:40;;;;;;;;;16.00;13.50;;;;;17.13;51.14;101014.72;4960829;28;45418;-56
2022/10/10 09:08:20;;;;;;;;;14.25;11.25;;;;;17.21;51.40;101017.94;4961204;28;45423;-56
2022/10/10 09:11:17;;;;;;;;;14.50;10.75;;;;;17.29;51.19;101004.34;4961239;28;45424;-57
2022/10/10 09:13:51;;;;;;;;;15.50;14.25;;;;;17.37;51.29;101006.72;4950595;28;45351;-58
2022/10/10 09:16:54;;;;;;;;;14.50;12.75;;;;;17.43;51.29;101001.16;4960790;28;45445;-56
2022/10/10 09:19:35;;;;;;;;;17.00;13.50;;;;;17.48;51.05;100993.91;4960947;28;45377;-57
2022/10/10 09:22:08;;;;;;;;;11.25;10.50;;;;;17.54;51.21;100998.97;4975905;28;45263;-56
2022/10/10 09:24:47;;;;;;;;;11.50;11.50;;;;;17.60;51.16;101010.31;4961064;28;45267;-56
2022/10/10 09:27:22;;;;;;;;;11.75;11.50;;;;;17.64;51.28;101012.75;4961041;28;45220;-57
2022/10/10 09:30:00;;;;;;;;;12.25;12.00;;;;;17.70;50.85;101012.50;4960787;28;46798;-57
2022/10/10 09:32:37;;;;;;;;;11.00;9.25;;;;;17.75;50.97;101025.63;4960874;28;45367;-56
2022/10/10 09:35:20;;;;;;;;;14.00;12.00;;;;;17.80;51.06;101030.78;4959543;28;45414;-57
2022/10/10 09:37:49;;;;;;;;;12.25;9.75;;;;;17.86;51.22;101035.81;4948130;28;45593;-57
2022/10/10 09:40:38;;;;;;;;;11.25;9.00;;;;;17.89;51.28;101034.84;4960702;28;46312;-57
2022/10/10 09:43:22;;;;;;;;;10.75;10.25;;;;;17.96;50.98;101039.00;4960876;28;45378;-57
2022/10/10 09:45:57;;;;;;;;;12.00;10.75;;;;;17.99;51.36;101038.91;4960682;28;45510;-57
2022/10/10 09:48:36;;;;;;;;;12.25;12.25;;;;;18.02;51.13;101047.63;4960676;28;45473;-57
2022/10/10 09:51:04;;;;;;;;;13.00;12.25;;;;;18.04;51.11;101044.91;4959389;28;46298;-57
2022/10/10 09:53:29;;;;;;;;;16.00;13.25;;;;;18.06;51.26;101050.16;4960603;28;45354;-55
2022/10/10 09:55:57;;;;;;;;;12.00;10.75;;;;;18.08;51.28;101051.81;4960897;28;45326;-57
2022/10/10 09:58:43;;;;;;;;;10.50;10.50;;;;;18.11;51.35;101050.81;4960656;28;45252;-55
2022/10/10 10:01:20;;;;;;;;;13.00;12.00;;;;;18.13;51.23;101049.81;4958974;28;48471;-56
2022/10/10 10:04:08;;;;;;;;;12.50;11.00;;;;;18.11;51.33;101054.38;4959391;28;45370;-56
2022/10/10 10:06:34;;;;;;;;;18.50;14.25;;;;;18.16;51.42;101062.13;4960430;28;45404;-57
2022/10/10 10:09:01;;;;;;;;;14.25;13.50;;;;;18.18;51.60;101060.28;4960691;28;45368;-57
2022/10/10 10:11:34;;;;;;;;;15.00;14.25;;;;;18.18;51.43;101071.78;4959283;28;47482;-55
2022/10/10 10:14:01;;;;;;;;;14.25;14.00;;;;;18.19;51.36;101065.53;4960513;28;45313;-57
2022/10/10 10:16:36;;;;;;;;;19.50;14.25;;;;;18.23;51.45;101066.28;4961589;28;45224;-56
2022/10/10 10:19:01;;;;;;;;;13.50;12.75;;;;;18.22;51.59;101069.84;4963892;28;45399;-56
2022/10/10 10:21:28;;;;;;;;;25.25;19.75;;;;;18.27;51.83;101077.66;4963451;28;45354;-57
2022/10/10 10:24:01;;;;;;;;;14.25;14.25;;;;;18.26;51.76;101060.81;4963993;28;45343;-57
2022/10/10 10:26:39;;;;;;;;;14.00;13.25;;;;;18.32;51.42;101075.66;4963655;28;45156;-57
2022/10/10 10:29:04;;;;;;;;;13.00;12.25;;;;;18.35;51.72;101083.50;4963360;28;45429;-56
2022/10/10 10:32:02;;;;;;;;;13.00;10.00;;;;;18.38;51.52;101074.53;4963230;28;45254;-57
2022/10/10 10:34:58;;;;;;;;;17.00;16.75;;;;;18.40;51.64;101088.66;4963481;28;45351;-56
2022/10/10 10:37:28;;;;;;;;;24.00;18.75;;;;;18.41;52.00;101093.91;4975529;28;45444;-57
2022/10/10 10:40:12;;;;;;;;;17.00;16.75;;;;;18.43;51.61;101101.84;4963677;28;45322;-57
2022/10/10 10:42:58;;;;;;;;;14.00;13.75;;;;;18.45;51.60;101105.28;4963091;28;45860;-57
2022/10/10 10:45:56;;;;;;;;;14.25;12.00;;;;;18.48;51.43;101107.84;4962968;28;45255;-56
2022/10/10 10:48:38;;;;;;;;;14.00;12.00;;;;;18.51;51.49;101105.91;4963280;28;45428;-56
2022/10/10 10:51:21;;;;;;;;;12.25;10.25;;;;;18.57;51.57;101111.91;4963071;28;45284;-56
2022/10/10 10:54:05;;;;;;;;;14.75;12.75;;;;;18.59;51.64;101113.59;4962967;28;45299;-57
2022/10/10 10:56:50;;;;;;;;;16.25;14.00;;;;;18.62;51.97;101104.59;4962961;28;45238;-57
2022/10/10 10:59:18;;;;;;;;;18.25;13.00;;;;;18.71;52.07;101101.53;4963052;28;45173;-57
2022/10/10 11:01:56;;;;;;;;;15.75;15.50;;;;;18.76;51.76;101115.50;4962946;28;45235;-56
2022/10/10 11:04:31;;;;;;;;;14.00;12.75;;;;;18.82;52.04;101123.25;4963173;28;45322;-56
2022/10/10 11:07:18;;;;;;;;;13.75;12.50;;;;;18.86;51.87;101126.63;4962863;28;45460;-57
2022/10/10 11:09:50;;;;;;;;;15.50;12.75;;;;;18.95;51.96;101130.75;4963113;28;45497;-56
2022/10/10 11:12:37;;;;;;;;;16.25;13.50;;;;;19.02;51.86;101134.88;4962860;28;45561;-57
2022/10/10 11:15:21;;;;;;;;;13.25;11.50;;;;;19.10;51.62;101129.22;4962306;28;45310;-57
2022/10/10 11:17:57;;;;;;;;;15.25;14.00;;;;;19.15;52.00;101132.53;4962690;28;45405;-58
2022/10/10 11:20:35;;;;;;;;;16.00;12.75;;;;;19.22;51.60;101122.47;4961756;28;45255;-59
2022/10/10 11:23:09;;;;;;;;;13.50;13.50;;;;;19.30;51.43;101138.97;4962711;28;45268;-56
2022/10/10 11:25:46;;;;;;;;;15.25;14.00;;;;;19.36;51.99;101149.38;4962751;28;45520;-56